Time;durP1;ratioP1;P1;durP2;ratioP2;P2;SDS_P1;SDS_P2;PMS_P1;PMS_P2;Temp;Humidity;BMP_temperature;BMP_pressure;BME280_temperature;BME280_humidity;BME280_pressure;Samples;Min_cycle;Max_cycle;Signal;HPM_P1;HPM_P2
2023/07/24 00:00:25;;;;;;;8.65;5.00;;;;;;;;;;5006452;28;20029;-64
2023/07/24 00:02:53;;;;;;;10.00;5.10;;;;;;;;;;5006327;28;20041;-64
2023/07/24 00:05:19;;;;;;;10.40;4.60;;;;;;;;;;5006765;28;20957;-64
2023/07/24 00:07:45;;;;;;;8.38;4.88;;;;;;;;;;5006608;28;20215;-64
2023/07/24 00:10:11;;;;;;;9.57;5.25;;;;;;;;;;5007160;28;20041;-64
2023/07/24 00:12:38;;;;;;;13.00;5.15;;;;;;;;;;5007247;28;20025;-64
2023/07/24 00:15:04;;;;;;;10.05;4.60;;;;;;;;;;5006941;28;20096;-64
2023/07/24 00:17:30;;;;;;;9.10;5.00;;;;;;;;;;5005965;28;20779;-65
2023/07/24 00:19:56;;;;;;;10.43;5.05;;;;;;;;;;5006607;28;20048;-64
2023/07/24 00:22:23;;;;;;;7.10;4.10;;;;;;;;;;5006276;28;20038;-64
2023/07/24 00:24:49;;;;;;;8.25;4.63;;;;;;;;;;5007543;28;20048;-64
2023/07/24 00:27:15;;;;;;;10.25;4.47;;;;;;;;;;5007196;28;20034;-64
2023/07/24 00:29:41;;;;;;;8.63;4.78;;;;;;;;;;5004970;28;20110;-64
2023/07/24 00:32:07;;;;;;;11.70;4.63;;;;;;;;;;5007250;28;20045;-64
2023/07/24 00:34:33;;;;;;;10.43;5.13;;;;;;;;;;5006405;28;20105;-64
2023/07/24 00:36:59;;;;;;;8.40;4.75;;;;;;;;;;5005648;28;20067;-64
2023/07/24 00:39:28;;;;;;;9.35;5.38;;;;;;;;;;5006665;28;21344;-64
2023/07/24 00:41:54;;;;;;;12.05;5.22;;;;;;;;;;5006722;28;20037;-64
2023/07/24 00:44:20;;;;;;;9.57;4.57;;;;;;;;;;5005611;28;20323;-65
2023/07/24 00:46:46;;;;;;;9.73;5.25;;;;;;;;;;5006289;28;20500;-65
2023/07/24 00:49:13;;;;;;;9.23;4.82;;;;;;;;;;5006265;28;21954;-65
2023/07/24 00:51:39;;;;;;;9.23;4.95;;;;;;;;;;5006799;28;20021;-65
2023/07/24 00:54:06;;;;;;;10.70;5.07;;;;;;;;;;5005063;28;20029;-65
2023/07/24 00:56:33;;;;;;;15.68;4.75;;;;;;;;;;5006157;28;20029;-64
2023/07/24 00:59:00;;;;;;;10.85;5.63;;;;;;;;;;5005180;28;21772;-64
2023/07/24 01:01:26;;;;;;;10.57;4.93;;;;;;;;;;5003105;28;20037;-65
2023/07/24 01:03:52;;;;;;;9.90;5.28;;;;;;;;;;5004351;28;20052;-64
2023/07/24 01:06:19;;;;;;;12.35;5.28;;;;;;;;;;5005404;28;20045;-65
2023/07/24 01:08:45;;;;;;;10.95;5.32;;;;;;;;;;5004791;28;20064;-64
2023/07/24 01:11:21;;;;;;;13.50;5.63;;;;;;;;;;5004683;28;20037;-64
2023/07/24 01:13:59;;;;;;;13.10;6.65;;;;;;;;;;5003717;28;21278;-64
2023/07/24 01:16:28;;;;;;;11.20;6.18;;;;;;;;;;5005353;28;20033;-64
2023/07/24 01:18:56;;;;;;;9.38;5.88;;;;;;;;;;5004736;28;20148;-64
2023/07/24 01:21:30;;;;;;;10.43;6.20;;;;;;;;;;5005929;28;20768;-64
2023/07/24 01:24:00;;;;;;;11.18;7.00;;;;;;;;;;5005436;28;20030;-65
2023/07/24 01:26:26;;;;;;;11.00;6.38;;;;;;;;;;5005998;28;20021;-64
2023/07/24 01:28:52;;;;;;;12.27;6.72;;;;;;;;;;5006042;28;21309;-64
2023/07/24 01:31:18;;;;;;;10.13;5.88;;;;;;;;;;5004976;28;20888;-64
2023/07/24 01:33:45;;;;;;;13.15;5.72;;;;;;;;;;5006482;28;20519;-64
2023/07/24 01:36:11;;;;;;;12.60;6.93;;;;;;;;;;5005711;28;20087;-64
2023/07/24 01:38:37;;;;;;;10.63;6.97;;;;;;;;;;5005534;28;20037;-64
2023/07/24 01:41:04;;;;;;;12.40;6.95;;;;;;;;;;5004090;28;20121;-64
2023/07/24 01:43:31;;;;;;;11.23;7.03;;;;;;;;;;5005220;28;20068;-64
2023/07/24 01:45:58;;;;;;;12.30;7.72;;;;;;;;;;5004942;28;20659;-65
2023/07/24 01:48:24;;;;;;;15.68;7.32;;;;;;;;;;5005726;28;20044;-65
2023/07/24 01:50:50;;;;;;;13.85;7.78;;;;;;;;;;5004783;28;21327;-65
2023/07/24 01:53:16;;;;;;;11.02;7.55;;;;;;;;;;5005627;28;20043;-65
2023/07/24 01:55:42;;;;;;;11.85;8.13;;;;;;;;;;5004465;28;20033;-65
2023/07/24 01:58:08;;;;;;;11.70;7.90;;;;;;;;;;5005226;28;20056;-65
2023/07/24 02:00:34;;;;;;;15.85;8.60;;;;;;;;;;5005058;28;20098;-65
2023/07/24 02:03:01;;;;;;;13.70;8.75;;;;;;;;;;5004294;28;20064;-65
2023/07/24 02:05:27;;;;;;;13.60;8.32;;;;;;;;;;5004749;28;20038;-65
2023/07/24 02:07:53;;;;;;;12.65;8.50;;;;;;;;;;5004706;28;20097;-65
2023/07/24 02:10:19;;;;;;;13.38;9.18;;;;;;;;;;5004296;28;20045;-64
2023/07/24 02:12:45;;;;;;;13.90;9.23;;;;;;;;;;5004757;28;20627;-65
2023/07/24 02:15:11;;;;;;;14.32;9.93;;;;;;;;;;5004179;28;20105;-65
2023/07/24 02:17:39;;;;;;;14.98;10.13;;;;;;;;;;5004243;28;20116;-65
2023/07/24 02:20:06;;;;;;;15.50;10.60;;;;;;;;;;5003872;28;20046;-65
2023/07/24 02:22:32;;;;;;;11.93;9.10;;;;;;;;;;5004229;28;20049;-65
2023/07/24 02:24:58;;;;;;;13.55;9.95;;;;;;;;;;5005328;28;20125;-65
2023/07/24 02:27:28;;;;;;;13.93;10.57;;;;;;;;;;5004496;28;20084;-65
2023/07/24 02:29:54;;;;;;;14.05;10.23;;;;;;;;;;5005378;28;20037;-65
2023/07/24 02:32:24;;;;;;;12.57;9.95;;;;;;;;;;5005161;28;20648;-65
2023/07/24 02:34:51;;;;;;;12.48;9.60;;;;;;;;;;5005069;28;20036;-65
2023/07/24 02:37:17;;;;;;;13.45;9.30;;;;;;;;;;5005656;28;20045;-65
2023/07/24 02:39:43;;;;;;;13.55;9.75;;;;;;;;;;5005007;28;20075;-65
2023/07/24 02:42:09;;;;;;;15.10;10.40;;;;;;;;;;5004229;28;20042;-65
2023/07/24 02:44:36;;;;;;;12.35;10.18;;;;;;;;;;5005341;28;20037;-65
2023/07/24 02:47:02;;;;;;;14.10;10.07;;;;;;;;;;5004900;28;20029;-65
2023/07/24 02:49:28;;;;;;;13.98;9.98;;;;;;;;;;5005141;28;21045;-65
2023/07/24 02:51:54;;;;;;;14.05;9.68;;;;;;;;;;5004342;28;20038;-65
2023/07/24 02:54:20;;;;;;;13.38;10.25;;;;;;;;;;5007215;28;20056;-65
2023/07/24 02:56:46;;;;;;;13.30;9.65;;;;;;;;;;5007910;28;20235;-65
2023/07/24 02:59:12;;;;;;;13.55;9.43;;;;;;;;;;5007842;28;20041;-65
2023/07/24 03:01:38;;;;;;;13.15;9.80;;;;;;;;;;5008435;28;20400;-65
2023/07/24 03:04:05;;;;;;;12.90;9.27;;;;;;;;;;5006890;28;20029;-65
2023/07/24 03:06:31;;;;;;;12.93;9.32;;;;;;;;;;5006620;28;20061;-65
2023/07/24 03:08:58;;;;;;;13.48;9.23;;;;;;;;;;5004834;28;20041;-65
2023/07/24 03:11:24;;;;;;;14.23;9.27;;;;;;;;;;5005426;28;20029;-65
2023/07/24 03:13:50;;;;;;;12.95;9.70;;;;;;;;;;5006981;28;20746;-65
2023/07/24 03:16:22;;;;;;;13.63;9.00;;;;;;;;;;5007495;28;20076;-65
2023/07/24 03:18:48;;;;;;;14.98;7.95;;;;;;;;;;5008433;28;20037;-65
2023/07/24 03:21:14;;;;;;;15.30;9.00;;;;;;;;;;5008333;28;20033;-65
2023/07/24 03:23:40;;;;;;;13.65;7.93;;;;;;;;;;5007692;28;20052;-65
2023/07/24 03:26:06;;;;;;;14.40;9.27;;;;;;;;;;5007433;28;20077;-65
2023/07/24 03:28:32;;;;;;;12.20;8.40;;;;;;;;;;5008110;28;20037;-65
2023/07/24 03:30:58;;;;;;;12.13;7.55;;;;;;;;;;5008181;28;20045;-65
2023/07/24 03:33:24;;;;;;;12.07;7.05;;;;;;;;;;5007671;28;20056;-65
2023/07/24 03:35:50;;;;;;;11.80;7.82;;;;;;;;;;5008263;28;20447;-65
2023/07/24 03:38:16;;;;;;;12.80;7.80;;;;;;;;;;5007032;28;21853;-65
2023/07/24 03:40:42;;;;;;;12.13;7.80;;;;;;;;;;5006760;28;20070;-65
2023/07/24 03:43:08;;;;;;;12.80;7.85;;;;;;;;;;5007476;28;20064;-65
2023/07/24 03:45:35;;;;;;;15.38;7.85;;;;;;;;;;5007531;28;20033;-65
2023/07/24 03:48:01;;;;;;;11.90;8.38;;;;;;;;;;5008095;28;20018;-66
2023/07/24 03:50:27;;;;;;;14.05;7.07;;;;;;;;;;5006745;28;20508;-65
2023/07/24 03:52:53;;;;;;;16.33;8.88;;;;;;;;;;5007713;28;20040;-65
2023/07/24 03:55:19;;;;;;;14.25;8.52;;;;;;;;;;5006951;28;20040;-65
2023/07/24 03:57:45;;;;;;;13.98;8.35;;;;;;;;;;5006692;28;20495;-65
2023/07/24 04:00:11;;;;;;;11.15;7.07;;;;;;;;;;5006905;28;20506;-65
2023/07/24 04:02:38;;;;;;;10.32;7.53;;;;;;;;;;5007581;28;20045;-65
2023/07/24 04:05:07;;;;;;;11.50;6.90;;;;;;;;;;5006638;28;20045;-65
2023/07/24 04:07:33;;;;;;;16.15;8.02;;;;;;;;;;5007053;28;20053;-65
2023/07/24 04:09:59;;;;;;;12.77;6.97;;;;;;;;;;5006652;28;20042;-65
2023/07/24 04:12:25;;;;;;;9.80;7.03;;;;;;;;;;5007632;28;20037;-65
2023/07/24 04:14:51;;;;;;;12.88;7.30;;;;;;;;;;5007085;28;20041;-65
2023/07/24 04:17:17;;;;;;;16.50;8.43;;;;;;;;;;5007381;28;20037;-65
2023/07/24 04:19:43;;;;;;;11.80;7.38;;;;;;;;;;5006857;28;20040;-65
2023/07/24 04:22:09;;;;;;;14.18;7.05;;;;;;;;;;5007339;28;20213;-65
2023/07/24 04:24:35;;;;;;;11.68;7.03;;;;;;;;;;5006300;28;20044;-65
2023/07/24 04:27:04;;;;;;;12.75;7.60;;;;;;;;;;5005983;28;20037;-65
2023/07/24 04:29:30;;;;;;;11.95;7.20;;;;;;;;;;5006518;28;20098;-65
2023/07/24 04:31:56;;;;;;;10.98;7.30;;;;;;;;;;5005428;28;20165;-65
2023/07/24 04:34:22;;;;;;;11.40;7.15;;;;;;;;;;5006262;28;20037;-64
2023/07/24 04:36:48;;;;;;;13.95;7.78;;;;;;;;;;5005410;28;20034;-64
2023/07/24 04:39:15;;;;;;;11.48;7.55;;;;;;;;;;5005727;28;20029;-65
2023/07/24 04:41:41;;;;;;;12.23;7.55;;;;;;;;;;5005540;28;20033;-65
2023/07/24 04:44:07;;;;;;;11.05;7.88;;;;;;;;;;5006388;28;20096;-65
2023/07/24 04:46:33;;;;;;;10.98;7.32;;;;;;;;;;5005294;28;20052;-64
2023/07/24 04:49:02;;;;;;;11.23;8.45;;;;;;;;;;5006113;28;20034;-65
2023/07/24 04:51:28;;;;;;;11.15;8.23;;;;;;;;;;5006240;28;20044;-65
2023/07/24 04:53:54;;;;;;;11.20;8.60;;;;;;;;;;5005867;28;20029;-65
2023/07/24 04:56:20;;;;;;;11.75;8.35;;;;;;;;;;5006535;28;20481;-65
2023/07/24 04:58:46;;;;;;;12.85;8.55;;;;;;;;;;5005580;28;21232;-65
2023/07/24 05:01:12;;;;;;;12.52;9.38;;;;;;;;;;5006251;28;20052;-65
2023/07/24 05:03:41;;;;;;;13.43;9.35;;;;;;;;;;5006158;28;20055;-65
2023/07/24 05:06:07;;;;;;;12.25;8.98;;;;;;;;;;5005459;28;20072;-65
2023/07/24 05:08:33;;;;;;;15.70;8.95;;;;;;;;;;5003120;28;20053;-65
2023/07/24 05:10:59;;;;;;;11.38;7.57;;;;;;;;;;5003175;28;20540;-65
2023/07/24 05:13:26;;;;;;;13.43;9.00;;;;;;;;;;5005249;28;20084;-65
2023/07/24 05:15:52;;;;;;;12.32;9.23;;;;;;;;;;5003586;28;20037;-65
2023/07/24 05:18:18;;;;;;;12.68;8.70;;;;;;;;;;5005216;28;20056;-65
2023/07/24 05:20:48;;;;;;;15.20;9.13;;;;;;;;;;5004784;28;20047;-65
2023/07/24 05:23:14;;;;;;;11.68;8.75;;;;;;;;;;5005756;28;20033;-65
2023/07/24 05:25:40;;;;;;;12.73;9.70;;;;;;;;;;5005637;28;20451;-65
2023/07/24 05:28:07;;;;;;;10.73;8.35;;;;;;;;;;5005589;28;20048;-65
2023/07/24 05:30:36;;;;;;;15.93;9.40;;;;;;;;;;5005857;28;20064;-65
2023/07/24 05:33:02;;;;;;;13.13;8.90;;;;;;;;;;5005255;28;20033;-65
2023/07/24 05:35:28;;;;;;;16.00;9.80;;;;;;;;;;5006268;28;20021;-65
2023/07/24 05:37:54;;;;;;;12.73;9.30;;;;;;;;;;5004985;28;20032;-65
2023/07/24 05:40:20;;;;;;;12.48;8.75;;;;;;;;;;5005274;28;20033;-65
2023/07/24 05:42:47;;;;;;;10.80;8.88;;;;;;;;;;5005343;28;20041;-65
2023/07/24 05:45:16;;;;;;;10.70;8.50;;;;;;;;;;5005806;28;20041;-65
2023/07/24 05:47:42;;;;;;;12.85;9.85;;;;;;;;;;5004820;28;20057;-65
2023/07/24 05:50:08;;;;;;;12.38;9.25;;;;;;;;;;5005002;28;20387;-64
2023/07/24 05:52:35;;;;;;;11.48;9.05;;;;;;;;;;5004616;28;20103;-64
2023/07/24 05:55:01;;;;;;;14.48;9.40;;;;;;;;;;5005833;28;20123;-64
2023/07/24 05:57:27;;;;;;;12.85;9.25;;;;;;;;;;5004536;28;20092;-65
2023/07/24 05:59:53;;;;;;;12.60;8.90;;;;;;;;;;5005476;28;20604;-65
2023/07/24 06:02:19;;;;;;;13.77;9.05;;;;;;;;;;5005619;28;20706;-65
2023/07/24 06:04:45;;;;;;;12.63;8.98;;;;;;;;;;5005324;28;20033;-65
2023/07/24 06:07:11;;;;;;;14.18;9.90;;;;;;;;;;5004120;28;20134;-65
2023/07/24 06:09:37;;;;;;;14.25;9.20;;;;;;;;;;5005187;28;20049;-65
2023/07/24 06:12:03;;;;;;;13.57;9.15;;;;;;;;;;5022093;28;20069;-65
2023/07/24 06:14:29;;;;;;;12.32;9.60;;;;;;;;;;5005235;28;20025;-65
2023/07/24 06:16:55;;;;;;;13.93;9.05;;;;;;;;;;5005184;28;20030;-65
2023/07/24 06:19:21;;;;;;;14.68;9.10;;;;;;;;;;5005432;28;20045;-65
2023/07/24 06:21:47;;;;;;;13.52;9.88;;;;;;;;;;5004729;28;20037;-65
2023/07/24 06:24:13;;;;;;;14.10;9.32;;;;;;;;;;5005466;28;20032;-65
2023/07/24 06:26:40;;;;;;;12.90;9.68;;;;;;;;;;5005666;28;20060;-65
2023/07/24 06:29:06;;;;;;;13.25;8.50;;;;;;;;;;5008936;28;20132;-65
2023/07/24 06:31:32;;;;;;;13.75;8.95;;;;;;;;;;5007082;28;20056;-65
2023/07/24 06:33:58;;;;;;;13.80;9.13;;;;;;;;;;5008638;28;20025;-65
2023/07/24 06:36:27;;;;;;;12.48;9.10;;;;;;;;;;5006946;28;20109;-65
2023/07/24 06:38:53;;;;;;;11.88;8.63;;;;;;;;;;5008827;28;20045;-65
2023/07/24 06:41:21;;;;;;;12.07;8.45;;;;;;;;;;5008768;28;20040;-65
2023/07/24 06:43:47;;;;;;;13.60;7.85;;;;;;;;;;5005203;28;20037;-65
2023/07/24 06:46:13;;;;;;;11.73;8.45;;;;;;;;;;5008617;28;20156;-65
2023/07/24 06:48:39;;;;;;;11.52;8.43;;;;;;;;;;5008591;28;20037;-65
2023/07/24 06:51:05;;;;;;;10.82;7.93;;;;;;;;;;5007300;28;20036;-65
2023/07/24 06:53:31;;;;;;;13.90;9.23;;;;;;;;;;5006565;28;20081;-65
2023/07/24 06:55:57;;;;;;;11.40;8.43;;;;;;;;;;5007798;28;20029;-65
2023/07/24 06:58:23;;;;;;;13.35;9.05;;;;;;;;;;5008776;28;20033;-65
2023/07/24 07:00:49;;;;;;;12.18;8.27;;;;;;;;;;5008576;28;20099;-65
2023/07/24 07:03:15;;;;;;;13.38;8.95;;;;;;;;;;5007120;28;20686;-65
2023/07/24 07:05:41;;;;;;;12.52;8.82;;;;;;;;;;5007215;28;20602;-65
2023/07/24 07:08:07;;;;;;;14.77;8.18;;;;;;;;;;5007770;28;20049;-65
2023/07/24 07:10:33;;;;;;;16.00;8.60;;;;;;;;;;5007055;28;20050;-65
2023/07/24 07:12:59;;;;;;;12.05;7.95;;;;;;;;;;5005879;28;20033;-65
2023/07/24 07:15:25;;;;;;;12.30;8.65;;;;;;;;;;5005687;28;20028;-65
2023/07/24 07:17:52;;;;;;;15.65;9.13;;;;;;;;;;5006831;28;20107;-65
2023/07/24 07:20:18;;;;;;;13.80;9.32;;;;;;;;;;5006408;28;20041;-65
2023/07/24 07:22:44;;;;;;;15.02;8.75;;;;;;;;;;5006865;28;20616;-65
2023/07/24 07:25:10;;;;;;;10.95;7.72;;;;;;;;;;5006382;28;20068;-65
2023/07/24 07:27:36;;;;;;;14.55;8.88;;;;;;;;;;5007423;28;20037;-65
2023/07/24 07:30:03;;;;;;;11.55;7.88;;;;;;;;;;5007860;28;20037;-65
2023/07/24 07:32:32;;;;;;;16.58;8.75;;;;;;;;;;5008290;28;20032;-65
2023/07/24 07:34:59;;;;;;;15.27;8.43;;;;;;;;;;5008099;28;20026;-65
2023/07/24 07:37:25;;;;;;;15.38;8.68;;;;;;;;;;5008954;28;20139;-65
2023/07/24 07:39:51;;;;;;;15.20;7.53;;;;;;;;;;5006773;28;20052;-65
2023/07/24 07:42:17;;;;;;;14.85;8.43;;;;;;;;;;5008164;28;20044;-65
2023/07/24 07:44:43;;;;;;;15.25;7.60;;;;;;;;;;5007882;28;20034;-65
2023/07/24 07:47:09;;;;;;;13.63;7.60;;;;;;;;;;5006631;28;20041;-65
2023/07/24 07:49:35;;;;;;;13.73;8.25;;;;;;;;;;5006933;28;20030;-65
2023/07/24 07:52:01;;;;;;;13.20;7.20;;;;;;;;;;5007615;28;20025;-65
2023/07/24 07:54:27;;;;;;;12.60;7.78;;;;;;;;;;5007769;28;20041;-65
2023/07/24 07:56:53;;;;;;;14.77;7.95;;;;;;;;;;5007356;28;20137;-65
2023/07/24 07:59:19;;;;;;;13.95;7.15;;;;;;;;;;5006696;28;20022;-65
2023/07/24 08:01:45;;;;;;;15.00;8.23;;;;;;;;;;5005978;28;20112;-65
2023/07/24 08:04:12;;;;;;;13.90;7.15;;;;;;;;;;5006665;28;20144;-65
2023/07/24 08:06:38;;;;;;;14.32;7.30;;;;;;;;;;5007207;28;20029;-65
2023/07/24 08:09:04;;;;;;;12.50;7.63;;;;;;;;;;5005587;28;20041;-65
2023/07/24 08:11:30;;;;;;;12.00;6.68;;;;;;;;;;5005678;28;20053;-65
2023/07/24 08:13:56;;;;;;;11.68;5.82;;;;;;;;;;5007098;28;20123;-65
2023/07/24 08:16:22;;;;;;;12.73;6.38;;;;;;;;;;5007384;28;20475;-65
2023/07/24 08:18:48;;;;;;;14.45;7.50;;;;;;;;;;5006651;28;20099;-65
2023/07/24 08:21:15;;;;;;;15.63;6.90;;;;;;;;;;5006639;28;20045;-65
2023/07/24 08:23:41;;;;;;;14.65;7.40;;;;;;;;;;5005916;28;20022;-65
2023/07/24 08:26:07;;;;;;;13.40;6.70;;;;;;;;;;5006742;28;20041;-65
2023/07/24 08:28:37;;;;;;;11.90;6.45;;;;;;;;;;5004034;28;20029;-65
2023/07/24 08:31:03;;;;;;;14.30;7.32;;;;;;;;;;4994310;28;20068;-65
2023/07/24 08:33:29;;;;;;;16.63;7.10;;;;;;;;;;4990078;28;20036;-65
2023/07/24 08:36:03;;;;;;;13.35;6.90;;;;;;;;;;4996777;28;20199;-65
2023/07/24 08:38:30;;;;;;;10.32;5.88;;;;;;;;;;4994056;28;20067;-65
2023/07/24 08:41:03;;;;;;;12.15;6.18;;;;;;;;;;4997538;28;20033;-65
2023/07/24 08:43:30;;;;;;;;;;;;;;;;;;4997078;28;20033;-65
2023/07/24 08:45:56;;;;;;;14.23;6.15;;;;;;;;;;4996377;28;19912;-65
2023/07/24 08:48:23;;;;;;;11.90;6.05;;;;;;;;;;4996675;28;21700;-65
2023/07/24 08:50:50;;;;;;;19.17;6.72;;;;;;;;;;4997097;28;20942;-65
2023/07/24 08:53:18;;;;;;;13.80;7.40;;;;;;;;;;4996564;28;20030;-65
2023/07/24 08:55:45;;;;;;;10.75;6.65;;;;;;;;;;4997515;28;20025;-65
2023/07/24 08:58:11;;;;;;;11.15;6.63;;;;;;;;;;4995765;28;20108;-65
2023/07/24 09:00:37;;;;;;;16.25;7.18;;;;;;;;;;4996974;28;20061;-65
2023/07/24 09:03:03;;;;;;;13.90;6.38;;;;;;;;;;4995902;28;20037;-65
2023/07/24 09:05:29;;;;;;;16.35;7.45;;;;;;;;;;4996102;28;20037;-65
2023/07/24 09:07:55;;;;;;;21.45;7.70;;;;;;;;;;4995629;28;20144;-65
2023/07/24 09:10:28;;;;;;;15.05;6.63;;;;;;;;;;4996164;28;20082;-65
2023/07/24 09:12:55;;;;;;;16.90;6.70;;;;;;;;;;4995190;28;20033;-65
2023/07/24 09:15:21;;;;;;;17.13;7.38;;;;;;;;;;4995113;28;20039;-65
2023/07/24 09:17:50;;;;;;;16.02;6.75;;;;;;;;;;4994037;28;20045;-65
2023/07/24 09:20:17;;;;;;;13.63;7.03;;;;;;;;;;4993361;28;20044;-66
2023/07/24 09:22:50;;;;;;;11.05;6.07;;;;;;;;;;4996005;28;20033;-65
2023/07/24 09:25:16;;;;;;;16.55;7.18;;;;;;;;;;4988661;28;20037;-65
2023/07/24 09:27:42;;;;;;;11.70;6.47;;;;;;;;;;4995606;28;20033;-65
2023/07/24 09:30:15;;;;;;;11.73;6.07;;;;;;;;;;4997440;28;20561;-65
2023/07/24 09:32:41;;;;;;;12.65;6.15;;;;;;;;;;4995498;28;20055;-65
2023/07/24 09:35:20;;;;;;;12.48;6.55;;;;;;;;;;4996006;28;20032;-65
2023/07/24 09:37:47;;;;;;;16.58;6.38;;;;;;;;;;4996164;28;20036;-65
2023/07/24 09:40:15;;;;;;;11.63;6.22;;;;;;;;;;4995841;28;20128;-65
2023/07/24 09:42:41;;;;;;;14.63;5.95;;;;;;;;;;4995714;28;20030;-65
2023/07/24 09:45:08;;;;;;;14.18;6.15;;;;;;;;;;4995145;28;20148;-65
2023/07/24 09:47:34;;;;;;;10.98;5.80;;;;;;;;;;4995691;28;20030;-65
2023/07/24 09:50:03;;;;;;;8.05;5.65;;;;;;;;;;4995817;28;20037;-65
2023/07/24 09:52:30;;;;;;;10.57;6.18;;;;;;;;;;4995999;28;20025;-65
2023/07/24 09:55:14;;;;;;;10.55;6.07;;;;;;;;;;4995467;28;20098;-65
2023/07/24 09:57:41;;;;;;;12.52;5.45;;;;;;;;;;4994385;28;20095;-65
2023/07/24 10:00:07;;;;;;;12.38;5.43;;;;;;;;;;4995009;28;20030;-65
2023/07/24 10:02:33;;;;;;;10.02;5.10;;;;;;;;;;4997096;28;20049;-65
2023/07/24 10:05:00;;;;;;;12.98;5.97;;;;;;;;;;4998570;28;20030;-65
2023/07/24 10:07:26;;;;;;;10.85;6.10;;;;;;;;;;4999479;28;20038;-65
2023/07/24 10:09:52;;;;;;;10.60;6.30;;;;;;;;;;4994701;28;20160;-65
2023/07/24 10:12:19;;;;;;;11.40;6.97;;;;;;;;;;4997012;28;20148;-65
2023/07/24 10:14:46;;;;;;;12.10;7.30;;;;;;;;;;4999819;28;20932;-65
2023/07/24 10:17:12;;;;;;;10.77;6.50;;;;;;;;;;4998395;28;20069;-65
2023/07/24 10:19:45;;;;;;;11.40;6.95;;;;;;;;;;4999253;28;20412;-65
2023/07/24 10:22:19;;;;;;;13.75;7.40;;;;;;;;;;4998956;28;20021;-65
2023/07/24 10:24:45;;;;;;;14.13;7.38;;;;;;;;;;4997585;28;20442;-65
2023/07/24 10:27:12;;;;;;;9.50;5.72;;;;;;;;;;4999739;28;20026;-65
2023/07/24 10:29:38;;;;;;;9.50;5.50;;;;;;;;;;4997706;28;20037;-65
2023/07/24 10:32:05;;;;;;;8.55;5.10;;;;;;;;;;4999003;28;20120;-65
2023/07/24 10:34:40;;;;;;;12.45;5.55;;;;;;;;;;4999656;28;20057;-64
2023/07/24 10:37:13;;;;;;;9.32;5.68;;;;;;;;;;4999077;28;20484;-64
2023/07/24 10:39:40;;;;;;;11.32;5.70;;;;;;;;;;4997045;28;20033;-64
2023/07/24 10:42:07;;;;;;;9.88;5.20;;;;;;;;;;4999639;28;20038;-63
2023/07/24 10:44:33;;;;;;;12.02;5.53;;;;;;;;;;4999224;28;20029;-64
2023/07/24 10:47:02;;;;;;;11.05;5.25;;;;;;;;;;4999272;28;20061;-64
2023/07/24 10:49:29;;;;;;;9.75;5.05;;;;;;;;;;4999794;28;20057;-64
2023/07/24 10:51:58;;;;;;;10.85;4.80;;;;;;;;;;4999116;28;20029;-64
2023/07/24 10:54:24;;;;;;;10.20;4.78;;;;;;;;;;4999186;28;20404;-64
2023/07/24 10:56:50;;;;;;;9.80;4.07;;;;;;;;;;4999121;28;20049;-64
2023/07/24 10:59:16;;;;;;;6.75;3.55;;;;;;;;;;4999147;28;20079;-64
2023/07/24 11:01:42;;;;;;;10.75;4.82;;;;;;;;;;4998327;28;20029;-64
2023/07/24 11:04:12;;;;;;;8.88;4.72;;;;;;;;;;4997614;28;20042;-64
2023/07/24 11:06:38;;;;;;;10.15;4.43;;;;;;;;;;4998805;28;20041;-64
2023/07/24 11:09:04;;;;;;;8.65;4.20;;;;;;;;;;4998986;28;20064;-64
2023/07/24 11:11:31;;;;;;;9.82;4.10;;;;;;;;;;4997752;28;20570;-64
2023/07/24 11:13:57;;;;;;;11.88;4.70;;;;;;;;;;4997060;28;20035;-64
2023/07/24 11:16:24;;;;;;;10.35;4.95;;;;;;;;;;4998960;28;20106;-64
2023/07/24 11:18:55;;;;;;;8.57;4.90;;;;;;;;;;4996400;28;20054;-64
2023/07/24 11:21:21;;;;;;;9.73;4.68;;;;;;;;;;4994061;28;20072;-67
2023/07/24 11:23:51;;;;;;;12.10;5.82;;;;;;;;;;4995886;28;20034;-68
2023/07/24 11:26:25;;;;;;;9.60;5.70;;;;;;;;;;4997467;28;20021;-67
2023/07/24 11:28:51;;;;;;;11.85;6.18;;;;;;;;;;4997886;28;20055;-64
2023/07/24 11:31:21;;;;;;;12.27;6.20;;;;;;;;;;4996349;28;20029;-64
2023/07/24 11:33:48;;;;;;;12.10;6.53;;;;;;;;;;4981302;28;20036;-64
2023/07/24 11:36:14;;;;;;;10.23;5.70;;;;;;;;;;4997990;28;20040;-64
2023/07/24 11:38:40;;;;;;;14.30;5.75;;;;;;;;;;4997264;28;20141;-64
2023/07/24 11:41:08;;;;;;;10.25;5.18;;;;;;;;;;4997366;28;20886;-64
2023/07/24 11:43:34;;;;;;;9.55;5.40;;;;;;;;;;4996519;28;20029;-64
2023/07/24 11:46:00;;;;;;;10.10;5.40;;;;;;;;;;4997580;28;20033;-64
2023/07/24 11:48:27;;;;;;;8.82;5.85;;;;;;;;;;4997888;28;20030;-64
2023/07/24 11:50:54;;;;;;;9.98;5.80;;;;;;;;;;4997681;28;20214;-64
2023/07/24 11:53:28;;;;;;;10.65;5.75;;;;;;;;;;4998456;28;20030;-64
2023/07/24 11:55:55;;;;;;;8.98;5.47;;;;;;;;;;4997189;28;20091;-64
2023/07/24 11:58:22;;;;;;;10.38;5.20;;;;;;;;;;4997444;28;20060;-64
2023/07/24 12:00:51;;;;;;;11.27;4.80;;;;;;;;;;4997828;28;20035;-64
2023/07/24 12:03:28;;;;;;;6.45;4.70;;;;;;;;;;4998368;28;20061;-64
2023/07/24 12:05:54;;;;;;;8.35;5.18;;;;;;;;;;4998641;28;20037;-64
2023/07/24 12:08:23;;;;;;;7.68;5.20;;;;;;;;;;4997082;28;20065;-64
2023/07/24 12:10:49;;;;;;;11.32;6.20;;;;;;;;;;4995832;28;20715;-63
2023/07/24 12:13:15;;;;;;;16.88;8.20;;;;;;;;;;4997092;28;20026;-64
2023/07/24 12:15:41;;;;;;;19.38;8.48;;;;;;;;;;4996370;28;20938;-64
2023/07/24 12:18:07;;;;;;;14.70;8.25;;;;;;;;;;4996048;28;20407;-64
2023/07/24 12:20:34;;;;;;;16.58;8.50;;;;;;;;;;4997390;28;20042;-64
2023/07/24 12:23:00;;;;;;;11.75;7.55;;;;;;;;;;4997831;28;20040;-64
2023/07/24 12:25:26;;;;;;;12.90;8.02;;;;;;;;;;4997558;28;20100;-64
2023/07/24 12:27:52;;;;;;;14.20;8.23;;;;;;;;;;4996607;28;20044;-63
2023/07/24 12:30:20;;;;;;;10.45;7.88;;;;;;;;;;4997786;28;21547;-64
2023/07/24 12:32:46;;;;;;;11.57;8.13;;;;;;;;;;4997246;28;20036;-63
2023/07/24 12:35:12;;;;;;;11.55;7.75;;;;;;;;;;4997210;28;20143;-63
2023/07/24 12:37:41;;;;;;;13.68;8.38;;;;;;;;;;4997430;28;20234;-63
2023/07/24 12:40:08;;;;;;;10.10;8.70;;;;;;;;;;4996276;28;20172;-63
2023/07/24 12:42:34;;;;;;;9.75;7.32;;;;;;;;;;4996521;28;20037;-63
2023/07/24 12:45:02;;;;;;;11.00;7.65;;;;;;;;;;4997513;28;20033;-63
2023/07/24 12:47:28;;;;;;;10.52;7.35;;;;;;;;;;4998246;28;20110;-63
2023/07/24 12:49:56;;;;;;;8.63;5.82;;;;;;;;;;4996596;28;20568;-63
2023/07/24 12:52:22;;;;;;;12.98;5.97;;;;;;;;;;4997549;28;20045;-63
2023/07/24 12:54:48;;;;;;;10.88;7.35;;;;;;;;;;4997780;28;20033;-63
2023/07/24 12:57:14;;;;;;;9.60;6.47;;;;;;;;;;4997041;28;20057;-63
2023/07/24 12:59:40;;;;;;;10.15;6.18;;;;;;;;;;4996385;28;21036;-63
2023/07/24 13:02:06;;;;;;;9.30;5.90;;;;;;;;;;4997032;28;20079;-63
2023/07/24 13:04:32;;;;;;;9.80;6.07;;;;;;;;;;4993958;28;20709;-63
2023/07/24 13:07:00;;;;;;;7.82;5.97;;;;;;;;;;4997082;28;20470;-63
2023/07/24 13:09:26;;;;;;;10.13;6.88;;;;;;;;;;4996925;28;20149;-62
2023/07/24 13:11:54;;;;;;;11.07;7.57;;;;;;;;;;4995922;28;20037;-62
2023/07/24 13:14:20;;;;;;;12.45;6.85;;;;;;;;;;4997252;28;20033;-63
2023/07/24 13:16:46;;;;;;;10.40;6.22;;;;;;;;;;4994399;28;20384;-65
2023/07/24 13:19:12;;;;;;;9.20;6.18;;;;;;;;;;4996274;28;20136;-65
2023/07/24 13:21:39;;;;;;;10.02;6.13;;;;;;;;;;4995834;28;20715;-64
2023/07/24 13:24:06;;;;;;;7.00;3.45;;;;;;;;;;4996511;28;20678;-64
2023/07/24 13:26:32;;;;;;;4.68;2.70;;;;;;;;;;4994698;28;20065;-63
2023/07/24 13:28:58;;;;;;;4.78;1.60;;;;;;;;;;4993944;28;20202;-64
2023/07/24 13:31:24;;;;;;;4.82;1.60;;;;;;;;;;4993092;28;20029;-63
2023/07/24 13:33:50;;;;;;;5.28;1.73;;;;;;;;;;4995009;28;20038;-64
2023/07/24 13:36:16;;;;;;;3.58;1.63;;;;;;;;;;4994497;28;20492;-64
2023/07/24 13:38:43;;;;;;;4.78;1.52;;;;;;;;;;4996948;28;20045;-64
2023/07/24 13:41:09;;;;;;;4.28;1.73;;;;;;;;;;4995517;28;20749;-63
2023/07/24 13:43:35;;;;;;;7.55;2.03;;;;;;;;;;4995161;28;20033;-63
2023/07/24 13:46:04;;;;;;;6.72;2.08;;;;;;;;;;4996644;28;20075;-63
2023/07/24 13:48:31;;;;;;;5.05;1.80;;;;;;;;;;4996204;28;20041;-63
2023/07/24 13:50:57;;;;;;;9.10;2.33;;;;;;;;;;4996545;28;20041;-63
2023/07/24 13:53:24;;;;;;;6.68;2.50;;;;;;;;;;4996059;28;20461;-64
2023/07/24 13:55:50;;;;;;;5.65;2.10;;;;;;;;;;4997248;28;20028;-64
2023/07/24 13:58:16;;;;;;;11.55;2.70;;;;;;;;;;4996958;28;20032;-63
2023/07/24 14:00:42;;;;;;;6.72;1.85;;;;;;;;;;4997225;28;20068;-64
2023/07/24 14:03:08;;;;;;;9.57;2.40;;;;;;;;;;4995945;28;20061;-64
2023/07/24 14:05:38;;;;;;;8.15;2.40;;;;;;;;;;4995587;28;20041;-64
2023/07/24 14:08:04;;;;;;;5.78;1.77;;;;;;;;;;4995156;28;20049;-63
2023/07/24 14:10:30;;;;;;;5.93;1.42;;;;;;;;;;4996922;28;20050;-63
2023/07/24 14:12:56;;;;;;;7.75;2.35;;;;;;;;;;4995986;28;20084;-63
2023/07/24 14:15:22;;;;;;;7.35;2.20;;;;;;;;;;4996231;28;20042;-63
2023/07/24 14:17:48;;;;;;;7.00;1.90;;;;;;;;;;4996387;28;20080;-63
2023/07/24 14:20:14;;;;;;;8.13;2.20;;;;;;;;;;4996549;28;20107;-63
2023/07/24 14:22:40;;;;;;;8.27;2.25;;;;;;;;;;4996357;28;20029;-64
2023/07/24 14:25:07;;;;;;;10.43;2.50;;;;;;;;;;4995855;28;20074;-64
2023/07/24 14:27:33;;;;;;;8.98;2.50;;;;;;;;;;4996341;28;20119;-64
2023/07/24 14:29:59;;;;;;;9.65;2.58;;;;;;;;;;4997600;28;20049;-63